Time;durP1;ratioP1;P1;durP2;ratioP2;P2;SDS_P1;SDS_P2;PMS_P1;PMS_P2;Temp;Humidity;BMP_temperature;BMP_pressure;BME280_temperature;BME280_humidity;BME280_pressure;Samples;Min_cycle;Max_cycle;Signal;HPM_P1;HPM_P2
2021/07/18 00:00:24;;;;;;;5.10;1.30;;;;;;;;;;6997953;28;20090;-82
2021/07/18 00:03:45;;;;;;;4.35;1.50;;;;;;;;;;6997626;28;20074;-81
2021/07/18 00:07:05;;;;;;;7.82;1.80;;;;;;;;;;6998026;28;20144;-84
2021/07/18 00:10:27;;;;;;;8.55;2.33;;;;;;;;;;6997941;28;20494;-83
2021/07/18 08:57:34;;;;;;;5.75;2.30;;;;;;;;;;7132366;27;21270;-80
2021/07/18 09:00:54;;;;;;;2.03;1.38;;;;;;;;;;7103039;27;20572;-82
2021/07/18 09:04:14;;;;;;;2.03;1.05;;;;;;;;;;7075453;27;20055;-83
2021/07/18 09:07:43;;;;;;;4.97;0.90;;;;;;;;;;7075518;27;20100;-83
2021/07/18 09:11:21;;;;;;;2.08;1.05;;;;;;;;;;7075240;27;20401;-83
2021/07/18 09:14:46;;;;;;;1.67;1.20;;;;;;;;;;7079902;27;20043;-83
2021/07/18 09:18:13;;;;;;;3.65;1.00;;;;;;;;;;7075258;27;20047;-83
2021/07/18 09:21:33;;;;;;;4.03;1.13;;;;;;;;;;7059105;27;20047;-83
2021/07/18 09:24:57;;;;;;;1.90;1.20;;;;;;;;;;7090294;27;20044;-83
2021/07/18 09:28:20;;;;;;;5.00;1.00;;;;;;;;;;7098993;27;20039;-83
2021/07/18 09:31:40;;;;;;;1.38;1.02;;;;;;;;;;7084536;27;20078;-84
2021/07/18 09:35:12;;;;;;;1.50;1.00;;;;;;;;;;7088356;27;20062;-84
2021/07/18 09:38:33;;;;;;;2.03;1.17;;;;;;;;;;7097191;27;20070;-85
2021/07/18 09:41:57;;;;;;;1.27;1.00;;;;;;;;;;7066407;27;20043;-85
2021/07/18 09:45:23;;;;;;;2.20;1.02;;;;;;;;;;7075355;27;20504;-84
2021/07/18 09:48:46;;;;;;;1.42;1.00;;;;;;;;;;7074692;27;20054;-84
2021/07/18 09:52:17;;;;;;;2.28;1.30;;;;;;;;;;7079036;27;20094;-82
2021/07/18 09:55:38;;;;;;;2.25;1.30;;;;;;;;;;7074367;27;20455;-83
2021/07/18 09:58:59;;;;;;;2.20;1.10;;;;;;;;;;7089185;27;20047;-83
2021/07/18 10:02:27;;;;;;;3.58;0.98;;;;;;;;;;7074938;27;20457;-83
2021/07/18 10:06:09;;;;;;;5.10;1.05;;;;;;;;;;7073623;27;20126;-83
2021/07/18 10:09:30;;;;;;;3.97;0.90;;;;;;;;;;7056758;28;20055;-82
2021/07/18 10:12:50;;;;;;;0.88;0.88;;;;;;;;;;7042119;28;20075;-82
2021/07/18 10:16:12;;;;;;;1.85;1.10;;;;;;;;;;7068002;28;20054;-82
2021/07/18 10:19:33;;;;;;;1.65;1.20;;;;;;;;;;7057085;28;20043;-82
2021/07/18 10:22:54;;;;;;;1.02;1.00;;;;;;;;;;7038194;28;20100;-83
2021/07/18 10:26:17;;;;;;;1.17;1.00;;;;;;;;;;7054939;28;20054;-81
2021/07/18 10:29:38;;;;;;;3.45;1.15;;;;;;;;;;7056592;28;20046;-82
2021/07/18 10:32:59;;;;;;;1.05;0.80;;;;;;;;;;7067583;28;20066;-81
2021/07/18 10:36:22;;;;;;;2.47;0.82;;;;;;;;;;7058288;28;20358;-82
2021/07/18 10:39:43;;;;;;;2.17;1.20;;;;;;;;;;7064068;28;20134;-83
2021/07/18 10:43:04;;;;;;;5.80;1.42;;;;;;;;;;7057561;28;20043;-82
2021/07/18 10:46:42;;;;;;;1.88;1.10;;;;;;;;;;7072438;28;20031;-81
2021/07/18 10:50:05;;;;;;;2.65;1.20;;;;;;;;;;7077364;28;20551;-82
2021/07/18 10:53:29;;;;;;;2.35;1.08;;;;;;;;;;7081658;28;20521;-81
2021/07/18 10:56:51;;;;;;;2.33;1.30;;;;;;;;;;7070476;28;20104;-81
2021/07/18 11:00:25;;;;;;;1.10;1.00;;;;;;;;;;7066695;28;20447;-81
2021/07/18 11:03:46;;;;;;;1.65;1.23;;;;;;;;;;7075892;28;20043;-81
2021/07/18 11:07:22;;;;;;;1.88;1.10;;;;;;;;;;7051622;28;20179;-81
2021/07/18 11:11:00;;;;;;;2.72;1.13;;;;;;;;;;7058201;28;20046;-81
2021/07/18 11:14:35;;;;;;;1.70;1.13;;;;;;;;;;7076602;28;20043;-80
2021/07/18 11:18:01;;;;;;;2.47;0.98;;;;;;;;;;7078247;27;20103;-81
2021/07/18 11:21:31;;;;;;;1.05;0.95;;;;;;;;;;7061625;28;20051;-81
2021/07/18 11:24:52;;;;;;;2.25;1.55;;;;;;;;;;7054825;28;20074;-80
2021/07/18 11:28:30;;;;;;;2.38;1.00;;;;;;;;;;7071783;28;20053;-80
2021/07/18 11:31:50;;;;;;;4.05;1.00;;;;;;;;;;7080680;28;20068;-81
2021/07/18 11:35:18;;;;;;;1.10;0.90;;;;;;;;;;7055571;28;20043;-81
2021/07/18 11:38:38;;;;;;;0.98;0.90;;;;;;;;;;7053183;28;20097;-81
2021/07/18 11:42:02;;;;;;;1.00;0.90;;;;;;;;;;7052670;28;20083;-81
2021/07/18 11:45:23;;;;;;;0.95;0.90;;;;;;;;;;7048916;28;20112;-81
2021/07/18 11:48:46;;;;;;;2.05;1.10;;;;;;;;;;7034854;28;20052;-81
2021/07/18 11:52:07;;;;;;;2.30;0.88;;;;;;;;;;7053429;28;20094;-81
2021/07/18 11:55:31;;;;;;;1.67;0.95;;;;;;;;;;7052832;28;20054;-81
2021/07/18 11:58:53;;;;;;;2.17;1.00;;;;;;;;;;7053388;28;20122;-81
2021/07/18 12:02:14;;;;;;;1.52;0.88;;;;;;;;;;7053152;28;20496;-81
2021/07/18 12:05:35;;;;;;;1.55;0.90;;;;;;;;;;7051964;28;20055;-81
2021/07/18 12:08:57;;;;;;;1.27;0.80;;;;;;;;;;7034684;28;20116;-81
2021/07/18 12:12:18;;;;;;;0.98;0.65;;;;;;;;;;7052849;28;20528;-81
2021/07/18 12:15:54;;;;;;;1.20;1.00;;;;;;;;;;7052985;28;20493;-81
2021/07/18 12:19:15;;;;;;;3.60;0.80;;;;;;;;;;7052949;28;20058;-81
2021/07/18 12:22:35;;;;;;;1.33;1.00;;;;;;;;;;7052586;28;20047;-81
2021/07/18 12:25:56;;;;;;;1.23;1.13;;;;;;;;;;7052310;28;20111;-81
2021/07/18 12:29:17;;;;;;;1.05;1.00;;;;;;;;;;7052280;28;20074;-81
2021/07/18 12:32:37;;;;;;;1.52;1.15;;;;;;;;;;7066692;28;20062;-81
2021/07/18 12:36:04;;;;;;;0.98;0.90;;;;;;;;;;7060087;28;20047;-81
2021/07/18 12:39:27;;;;;;;1.60;1.02;;;;;;;;;;7057534;28;20393;-81
2021/07/18 12:42:52;;;;;;;1.10;0.80;;;;;;;;;;7052336;28;20477;-80
2021/07/18 12:46:19;;;;;;;1.00;0.93;;;;;;;;;;7030913;28;20036;-81
2021/07/18 12:49:39;;;;;;;0.93;0.93;;;;;;;;;;7066829;28;20051;-81
2021/07/18 12:53:07;;;;;;;1.00;0.90;;;;;;;;;;7066308;28;20124;-81
2021/07/18 12:56:28;;;;;;;1.13;1.00;;;;;;;;;;7052109;28;20052;-81
2021/07/18 13:00:01;;;;;;;1.10;1.00;;;;;;;;;;7051957;28;20097;-81
2021/07/18 13:03:21;;;;;;;1.00;0.90;;;;;;;;;;7066351;28;20052;-82
2021/07/18 13:06:47;;;;;;;0.80;0.80;;;;;;;;;;7051477;28;20044;-82
2021/07/18 13:10:19;;;;;;;1.13;1.10;;;;;;;;;;7051904;28;20036;-82
2021/07/18 13:13:39;;;;;;;1.33;0.90;;;;;;;;;;7051536;28;20047;-81
2021/07/18 13:17:12;;;;;;;1.08;0.98;;;;;;;;;;7051803;28;20058;-81
2021/07/18 13:20:35;;;;;;;1.10;1.00;;;;;;;;;;7062195;28;20134;-81
2021/07/18 13:23:55;;;;;;;1.10;1.00;;;;;;;;;;7054293;28;20382;-82
2021/07/18 13:27:24;;;;;;;1.08;0.85;;;;;;;;;;7053880;22;20499;-81
2021/07/18 13:30:44;;;;;;;1.17;0.80;;;;;;;;;;7023524;28;20102;-82
2021/07/18 13:34:05;;;;;;;0.80;0.80;;;;;;;;;;7023345;28;20127;-82
2021/07/18 13:37:35;;;;;;;1.58;1.00;;;;;;;;;;7024242;28;20048;-82
2021/07/18 13:41:06;;;;;;;0.88;0.85;;;;;;;;;;7024612;28;20047;-82
2021/07/18 13:44:27;;;;;;;0.95;0.85;;;;;;;;;;7029268;28;20044;-82
2021/07/18 13:47:48;;;;;;;0.93;0.93;;;;;;;;;;7028172;28;20102;-82
2021/07/18 13:51:12;;;;;;;0.88;0.88;;;;;;;;;;7027718;28;20089;-82
2021/07/18 13:54:33;;;;;;;0.93;0.90;;;;;;;;;;7027880;28;20055;-81
2021/07/18 13:57:53;;;;;;;1.15;0.93;;;;;;;;;;7027695;28;20044;-81
2021/07/18 14:01:14;;;;;;;1.13;1.00;;;;;;;;;;7027495;28;20071;-81
2021/07/18 14:04:34;;;;;;;1.17;1.00;;;;;;;;;;7027491;28;20044;-81
2021/07/18 14:07:55;;;;;;;1.30;0.70;;;;;;;;;;7027448;28;20119;-81
2021/07/18 14:11:15;;;;;;;1.17;0.90;;;;;;;;;;7027154;28;20067;-81
2021/07/18 14:14:35;;;;;;;0.93;0.88;;;;;;;;;;7027319;28;20098;-81
2021/07/18 14:17:56;;;;;;;0.70;0.70;;;;;;;;;;7027322;28;20093;-82
2021/07/18 14:21:17;;;;;;;0.90;0.90;;;;;;;;;;7026947;28;20056;-81
2021/07/18 14:24:40;;;;;;;0.98;0.98;;;;;;;;;;7007631;28;20390;-81
2021/07/18 14:28:04;;;;;;;0.85;0.85;;;;;;;;;;7026893;28;20085;-82
2021/07/18 14:31:24;;;;;;;1.15;0.90;;;;;;;;;;7026912;28;20036;-81
2021/07/18 14:34:44;;;;;;;1.67;1.23;;;;;;;;;;7026754;28;20186;-81
2021/07/18 14:38:06;;;;;;;1.00;1.00;;;;;;;;;;7026556;28;20097;-82
2021/07/18 14:41:26;;;;;;;1.13;1.00;;;;;;;;;;7026789;28;20067;-82
2021/07/18 14:44:47;;;;;;;1.13;0.90;;;;;;;;;;7026546;28;20113;-81
2021/07/18 14:48:07;;;;;;;1.15;1.05;;;;;;;;;;7026545;28;20083;-82
2021/07/18 14:51:28;;;;;;;4.80;1.00;;;;;;;;;;7026131;28;20044;-82
2021/07/18 14:54:48;;;;;;;1.27;1.00;;;;;;;;;;7026227;28;20494;-82
2021/07/18 14:58:09;;;;;;;1.00;0.98;;;;;;;;;;7026248;28;20139;-82
2021/07/18 15:01:29;;;;;;;0.95;0.95;;;;;;;;;;7026355;28;20040;-82
2021/07/18 15:04:50;;;;;;;1.10;1.00;;;;;;;;;;7026120;28;20075;-83
2021/07/18 15:08:10;;;;;;;0.93;0.90;;;;;;;;;;7026229;28;20044;-82
2021/07/18 15:11:31;;;;;;;2.08;0.98;;;;;;;;;;7025749;28;20119;-82
2021/07/18 15:14:51;;;;;;;0.80;0.75;;;;;;;;;;7026251;28;20056;-82
2021/07/18 15:18:11;;;;;;;1.85;0.90;;;;;;;;;;7026109;28;20142;-82
2021/07/18 15:21:32;;;;;;;0.70;0.70;;;;;;;;;;7025750;28;20075;-82
2021/07/18 15:24:52;;;;;;;0.80;0.80;;;;;;;;;;7025653;28;20056;-82
2021/07/18 15:28:13;;;;;;;1.10;1.00;;;;;;;;;;7025681;28;20040;-82
2021/07/18 15:31:33;;;;;;;1.17;1.00;;;;;;;;;;7025782;28;20082;-82
2021/07/18 15:34:54;;;;;;;1.70;1.38;;;;;;;;;;7025084;28;20121;-81
2021/07/18 15:38:14;;;;;;;0.80;0.80;;;;;;;;;;7025523;28;20048;-81
2021/07/18 15:41:36;;;;;;;1.10;1.05;;;;;;;;;;7025133;28;20378;-82
2021/07/18 15:44:57;;;;;;;1.17;1.08;;;;;;;;;;7025253;28;20132;-82
2021/07/18 15:48:17;;;;;;;2.08;0.95;;;;;;;;;;7025259;28;20040;-82
2021/07/18 15:51:38;;;;;;;1.02;0.90;;;;;;;;;;7025385;28;20048;-82
2021/07/18 15:54:58;;;;;;;1.50;1.00;;;;;;;;;;7025569;28;20040;-82
2021/07/18 15:58:19;;;;;;;0.95;0.93;;;;;;;;;;7027683;28;20535;-81
2021/07/18 16:01:39;;;;;;;1.15;1.05;;;;;;;;;;7027241;28;20135;-81
2021/07/18 16:05:00;;;;;;;0.90;0.80;;;;;;;;;;7026602;28;20101;-82
2021/07/18 16:08:20;;;;;;;1.17;0.80;;;;;;;;;;7026369;28;20044;-81
2021/07/18 16:11:40;;;;;;;1.48;0.93;;;;;;;;;;7025717;28;20127;-81
2021/07/18 16:15:05;;;;;;;2.75;1.02;;;;;;;;;;7024750;28;20043;-81
2021/07/18 16:18:25;;;;;;;1.05;0.95;;;;;;;;;;7024594;28;20040;-82
2021/07/18 16:21:46;;;;;;;1.20;1.10;;;;;;;;;;7024341;28;20147;-81
2021/07/18 16:25:07;;;;;;;5.65;1.40;;;;;;;;;;7024336;28;20082;-82
2021/07/18 16:28:28;;;;;;;1.30;1.10;;;;;;;;;;7024291;28;20052;-82
2021/07/18 16:31:49;;;;;;;1.42;1.10;;;;;;;;;;7024273;28;20040;-81
2021/07/18 16:35:11;;;;;;;2.60;1.33;;;;;;;;;;7024302;28;20148;-80
2021/07/18 16:38:32;;;;;;;1.60;1.20;;;;;;;;;;7023614;28;20109;-82
2021/07/18 16:41:52;;;;;;;1.90;1.23;;;;;;;;;;7024217;28;20085;-81
2021/07/18 16:45:13;;;;;;;2.70;1.48;;;;;;;;;;7023881;28;20055;-82
2021/07/18 16:48:33;;;;;;;5.18;1.50;;;;;;;;;;7010305;28;20056;-81
2021/07/18 16:51:54;;;;;;;1.42;1.33;;;;;;;;;;7023098;28;20478;-81
2021/07/18 16:55:14;;;;;;;2.10;1.60;;;;;;;;;;7023693;28;20048;-82
2021/07/18 16:58:34;;;;;;;4.10;1.50;;;;;;;;;;7023540;28;20044;-80
2021/07/18 17:01:55;;;;;;;1.40;1.30;;;;;;;;;;7023830;28;20090;-81
2021/07/18 17:05:15;;;;;;;1.30;1.20;;;;;;;;;;7023469;28;20060;-81
2021/07/18 17:08:36;;;;;;;1.52;1.42;;;;;;;;;;7023537;28;20052;-81
2021/07/18 17:11:58;;;;;;;3.35;1.67;;;;;;;;;;7023573;28;20044;-81
2021/07/18 17:15:18;;;;;;;4.10;1.50;;;;;;;;;;7023539;28;20222;-82
2021/07/18 17:18:39;;;;;;;1.42;1.33;;;;;;;;;;7009031;28;20446;-80
2021/07/18 17:21:59;;;;;;;1.70;1.33;;;;;;;;;;7028387;28;20122;-80
2021/07/18 17:25:20;;;;;;;2.60;1.67;;;;;;;;;;7028236;28;20409;-80
2021/07/18 17:28:41;;;;;;;3.25;1.77;;;;;;;;;;7028398;28;20040;-80
2021/07/18 17:32:03;;;;;;;3.38;1.95;;;;;;;;;;7028252;28;20127;-81
2021/07/18 17:35:25;;;;;;;3.30;1.50;;;;;;;;;;7027839;28;20048;-81
2021/07/18 17:38:46;;;;;;;2.83;1.73;;;;;;;;;;7027864;28;20093;-80
2021/07/18 17:42:07;;;;;;;2.13;1.60;;;;;;;;;;7028175;28;20126;-80
2021/07/18 17:45:27;;;;;;;2.97;1.80;;;;;;;;;;7027974;28;20181;-80
2021/07/18 17:48:48;;;;;;;4.50;1.83;;;;;;;;;;7027660;28;20061;-80
2021/07/18 17:52:08;;;;;;;6.22;2.13;;;;;;;;;;7027821;28;20478;-80
2021/07/18 17:55:29;;;;;;;1.88;1.63;;;;;;;;;;7027824;28;20060;-80
2021/07/18 17:58:49;;;;;;;1.73;1.63;;;;;;;;;;7027771;28;20052;-80
2021/07/18 18:02:09;;;;;;;1.65;1.55;;;;;;;;;;7013947;28;20056;-80
2021/07/18 18:05:30;;;;;;;1.85;1.67;;;;;;;;;;7027127;28;20090;-80
2021/07/18 18:08:50;;;;;;;2.78;1.58;;;;;;;;;;7029082;28;20074;-80
2021/07/18 18:12:11;;;;;;;2.00;1.75;;;;;;;;;;7028785;28;20055;-80
2021/07/18 18:15:31;;;;;;;1.75;1.65;;;;;;;;;;7028145;28;20139;-80
2021/07/18 18:18:52;;;;;;;2.28;1.60;;;;;;;;;;7027485;28;20075;-80
2021/07/18 18:22:12;;;;;;;1.95;1.70;;;;;;;;;;7026700;28;20056;-80
2021/07/18 18:25:33;;;;;;;1.65;1.55;;;;;;;;;;7027109;28;20077;-80
2021/07/18 18:28:53;;;;;;;2.13;1.85;;;;;;;;;;7025681;28;20059;-81
2021/07/18 18:32:14;;;;;;;1.42;1.33;;;;;;;;;;7024551;28;20044;-80
2021/07/18 18:35:35;;;;;;;4.88;1.88;;;;;;;;;;7024835;28;20083;-80
2021/07/18 18:38:55;;;;;;;2.55;1.67;;;;;;;;;;7006185;28;20409;-80
2021/07/18 18:42:16;;;;;;;1.65;1.45;;;;;;;;;;7026102;28;20040;-80
2021/07/18 18:45:36;;;;;;;1.70;1.60;;;;;;;;;;7026432;28;20465;-80
2021/07/18 18:48:57;;;;;;;1.38;1.27;;;;;;;;;;7007940;28;20040;-80
2021/07/18 18:52:17;;;;;;;2.75;1.63;;;;;;;;;;7026097;28;20123;-81
2021/07/18 18:55:38;;;;;;;1.75;1.50;;;;;;;;;;7026301;28;20577;-80
2021/07/18 18:59:00;;;;;;;1.98;1.52;;;;;;;;;;7025825;28;20040;-80
2021/07/18 19:02:20;;;;;;;1.52;1.42;;;;;;;;;;7025829;28;20072;-80
2021/07/18 19:05:44;;;;;;;6.85;1.90;;;;;;;;;;7025781;28;20048;-82
2021/07/18 19:09:09;;;;;;;9.45;1.90;;;;;;;;;;7033245;28;20054;-82
2021/07/18 19:12:29;;;;;;;8.18;2.35;;;;;;;;;;7025635;28;20055;-81
2021/07/18 19:15:51;;;;;;;5.13;1.98;;;;;;;;;;7026131;28;20143;-81
2021/07/18 19:19:12;;;;;;;15.55;3.00;;;;;;;;;;7025967;28;20075;-81
2021/07/18 19:22:32;;;;;;;11.25;2.42;;;;;;;;;;7027129;28;20051;-81
2021/07/18 19:25:53;;;;;;;5.28;2.22;;;;;;;;;;7027318;28;20106;-81
2021/07/18 19:29:14;;;;;;;9.00;2.65;;;;;;;;;;7027134;28;20134;-81
2021/07/18 19:32:34;;;;;;;3.47;1.73;;;;;;;;;;7026023;28;20056;-81
2021/07/18 19:35:55;;;;;;;10.90;2.58;;;;;;;;;;7025454;28;20050;-81
2021/07/18 19:39:15;;;;;;;7.78;2.40;;;;;;;;;;7024054;28;20535;-81
2021/07/18 19:42:36;;;;;;;9.23;2.25;;;;;;;;;;7025665;28;20503;-80
2021/07/18 19:45:57;;;;;;;7.38;2.10;;;;;;;;;;7025362;28;20044;-80
2021/07/18 19:49:17;;;;;;;8.07;2.00;;;;;;;;;;7025045;28;20078;-82
2021/07/18 19:52:39;;;;;;;3.70;2.22;;;;;;;;;;7025111;28;20055;-81
2021/07/18 19:56:00;;;;;;;7.80;2.13;;;;;;;;;;7023482;28;20405;-82
2021/07/18 19:59:20;;;;;;;5.00;2.10;;;;;;;;;;7024197;28;20541;-81
2021/07/18 20:02:42;;;;;;;3.60;2.55;;;;;;;;;;7024177;28;20148;-80
2021/07/18 20:06:02;;;;;;;6.85;2.97;;;;;;;;;;7023799;28;20408;-80
2021/07/18 20:09:23;;;;;;;6.88;3.20;;;;;;;;;;7017352;28;20541;-80
2021/07/18 20:12:43;;;;;;;5.00;3.25;;;;;;;;;;7022817;28;20044;-81
2021/07/18 20:16:04;;;;;;;4.93;3.47;;;;;;;;;;7022039;28;20121;-80
2021/07/18 20:19:24;;;;;;;5.60;2.90;;;;;;;;;;7017370;28;20097;-81
2021/07/18 20:22:45;;;;;;;6.75;3.30;;;;;;;;;;7023214;28;20079;-80
2021/07/18 20:26:05;;;;;;;5.32;3.08;;;;;;;;;;7022207;28;20065;-81
2021/07/18 20:29:26;;;;;;;8.18;3.40;;;;;;;;;;7023463;28;20481;-80
2021/07/18 20:32:47;;;;;;;5.32;3.40;;;;;;;;;;7023131;28;20044;-81
2021/07/18 20:36:07;;;;;;;7.38;3.22;;;;;;;;;;7019603;28;20051;-82
2021/07/18 20:39:28;;;;;;;3.53;2.90;;;;;;;;;;7023847;28;20048;-81
2021/07/18 20:42:49;;;;;;;5.18;3.40;;;;;;;;;;7021728;28;20067;-82
2021/07/18 20:46:09;;;;;;;5.15;3.08;;;;;;;;;;7023341;28;20491;-82
2021/07/18 20:49:30;;;;;;;7.82;3.42;;;;;;;;;;7023476;28;20122;-81
2021/07/18 20:52:50;;;;;;;5.05;3.60;;;;;;;;;;7021780;28;20048;-85
2021/07/18 20:56:10;;;;;;;7.25;4.65;;;;;;;;;;7023182;28;20429;-83
2021/07/18 20:59:31;;;;;;;7.47;3.92;;;;;;;;;;7023717;28;20044;-83
2021/07/18 21:02:51;;;;;;;10.90;3.92;;;;;;;;;;7023346;28;20128;-86
2021/07/18 21:06:12;;;;;;;8.75;3.80;;;;;;;;;;7023273;28;20119;-85
2021/07/18 21:09:33;;;;;;;6.20;4.50;;;;;;;;;;7021967;28;20039;-86
2021/07/18 21:12:53;;;;;;;9.27;4.65;;;;;;;;;;7010354;28;20074;-85
2021/07/18 21:16:14;;;;;;;11.38;4.47;;;;;;;;;;7021404;28;20043;-86
2021/07/18 21:19:35;;;;;;;5.28;4.47;;;;;;;;;;7023484;28;20063;-87
2021/07/18 21:22:55;;;;;;;8.38;5.25;;;;;;;;;;7022830;28;20122;-86
2021/07/18 21:26:16;;;;;;;5.90;5.07;;;;;;;;;;7022959;28;20148;-84
2021/07/18 21:29:36;;;;;;;11.93;5.53;;;;;;;;;;7023145;28;20094;-84
2021/07/18 21:32:57;;;;;;;9.27;5.43;;;;;;;;;;7023234;28;20127;-84
2021/07/18 21:36:18;;;;;;;8.18;5.18;;;;;;;;;;7011699;28;20076;-85
2021/07/18 21:39:40;;;;;;;7.22;4.72;;;;;;;;;;7014511;28;20036;-85
2021/07/18 21:43:01;;;;;;;8.60;6.28;;;;;;;;;;7022639;28;20036;-85
2021/07/18 21:46:21;;;;;;;9.50;5.40;;;;;;;;;;7023543;28;20413;-84
2021/07/18 21:49:41;;;;;;;14.13;5.60;;;;;;;;;;7023151;28;20469;-85
2021/07/18 21:53:02;;;;;;;7.95;5.60;;;;;;;;;;7023656;28;20072;-84
2021/07/18 21:56:23;;;;;;;9.10;6.13;;;;;;;;;;7023958;28;20050;-88
2021/07/18 21:59:43;;;;;;;8.63;5.28;;;;;;;;;;7023319;28;20052;-87
2021/07/18 22:03:07;;;;;;;8.10;5.90;;;;;;;;;;7024102;28;20112;-85
2021/07/18 22:06:28;;;;;;;10.48;5.88;;;;;;;;;;7027150;28;20052;-85
2021/07/18 22:09:49;;;;;;;9.85;5.53;;;;;;;;;;7027245;28;20052;-86
2021/07/18 22:13:09;;;;;;;7.57;4.93;;;;;;;;;;7027042;28;20078;-87
2021/07/18 22:16:29;;;;;;;12.85;5.10;;;;;;;;;;7025544;28;20094;-87
2021/07/18 22:19:50;;;;;;;8.80;5.00;;;;;;;;;;7026755;28;20147;-87
2021/07/18 22:23:11;;;;;;;12.02;5.53;;;;;;;;;;7026989;28;20046;-88
2021/07/18 22:26:32;;;;;;;10.02;5.13;;;;;;;;;;7008334;28;20042;-87
2021/07/18 22:29:52;;;;;;;7.82;4.70;;;;;;;;;;7008957;28;20048;-87
2021/07/18 22:33:13;;;;;;;13.15;4.15;;;;;;;;;;7026809;28;20040;-87
2021/07/18 22:36:33;;;;;;;8.43;4.88;;;;;;;;;;7026655;28;20048;-87
2021/07/18 22:39:54;;;;;;;11.63;4.78;;;;;;;;;;7026708;28;20127;-87
2021/07/18 22:43:14;;;;;;;10.43;4.50;;;;;;;;;;7026372;28;20098;-87
2021/07/18 22:46:34;;;;;;;6.80;4.90;;;;;;;;;;7026415;28;20040;-87
2021/07/18 22:49:55;;;;;;;7.40;5.43;;;;;;;;;;7008007;28;20051;-87
2021/07/18 22:53:15;;;;;;;9.25;5.93;;;;;;;;;;7026279;28;20127;-87
2021/07/18 22:56:36;;;;;;;7.65;5.07;;;;;;;;;;7026053;28;20039;-88
2021/07/18 22:59:56;;;;;;;8.02;4.50;;;;;;;;;;7004429;28;20488;-86
2021/07/18 23:03:21;;;;;;;13.05;5.22;;;;;;;;;;7026172;28;20130;-86
2021/07/18 23:06:42;;;;;;;8.40;4.75;;;;;;;;;;7008374;28;20040;-86
2021/07/18 23:10:03;;;;;;;11.60;4.95;;;;;;;;;;7006642;28;20079;-87
2021/07/18 23:13:24;;;;;;;7.05;4.53;;;;;;;;;;7025941;28;20044;-87
2021/07/18 23:16:44;;;;;;;6.55;5.00;;;;;;;;;;7025614;28;20502;-87
2021/07/18 23:20:07;;;;;;;9.63;4.95;;;;;;;;;;7026182;28;20445;-86
2021/07/18 23:23:27;;;;;;;7.82;4.65;;;;;;;;;;7025694;28;20044;-87
2021/07/18 23:26:48;;;;;;;11.23;4.63;;;;;;;;;;7025860;28;20394;-85
2021/07/18 23:30:10;;;;;;;7.72;4.35;;;;;;;;;;7025742;28;20131;-86
2021/07/18 23:33:31;;;;;;;8.63;4.55;;;;;;;;;;7025680;28;20086;-85
2021/07/18 23:36:52;;;;;;;7.03;4.85;;;;;;;;;;7025417;28;20044;-85
2021/07/18 23:40:12;;;;;;;6.25;4.57;;;;;;;;;;7025596;28;20079;-86
2021/07/18 23:43:33;;;;;;;8.48;4.53;;;;;;;;;;7025199;28;20036;-85
2021/07/18 23:46:53;;;;;;;11.60;5.25;;;;;;;;;;7025591;28;20546;-85
2021/07/18 23:50:14;;;;;;;9.30;4.80;;;;;;;;;;7025337;28;20079;-85
2021/07/18 23:53:34;;;;;;;7.72;5.07;;;;;;;;;;7024863;28;20057;-85
2021/07/18 23:56:54;;;;;;;12.93;4.78;;;;;;;;;;7025277;28;20051;-85
